sensor_id;sensor_type;location;lat;lon;timestamp;P1;durP1;ratioP1;P2;durP2;ratioP2
13967;SDS011;39536;52.198;9.920;2023-09-19T00:02:05;1.83;;;1.07;;
13967;SDS011;39536;52.198;9.920;2023-09-19T00:04:33;5.60;;;0.97;;
13967;SDS011;39536;52.198;9.920;2023-09-19T00:07:00;1.20;;;1.10;;
13967;SDS011;39536;52.198;9.920;2023-09-19T00:09:28;1.97;;;1.40;;
13967;SDS011;39536;52.198;9.920;2023-09-19T00:11:55;3.00;;;1.20;;
13967;SDS011;39536;52.198;9.920;2023-09-19T00:14:24;1.77;;;1.20;;
13967;SDS011;39536;52.198;9.920;2023-09-19T00:16:51;1.33;;;1.23;;
13967;SDS011;39536;52.198;9.920;2023-09-19T00:19:21;1.60;;;1.40;;
13967;SDS011;39536;52.198;9.920;2023-09-19T00:21:49;1.83;;;1.27;;
13967;SDS011;39536;52.198;9.920;2023-09-19T00:24:15;1.53;;;1.43;;
13967;SDS011;39536;52.198;9.920;2023-09-19T00:26:43;1.30;;;1.30;;
13967;SDS011;39536;52.198;9.920;2023-09-19T00:29:11;1.50;;;1.40;;
13967;SDS011;39536;52.198;9.920;2023-09-19T00:31:42;1.73;;;1.63;;
13967;SDS011;39536;52.198;9.920;2023-09-19T00:34:09;1.73;;;1.30;;
13967;SDS011;39536;52.198;9.920;2023-09-19T00:36:37;8.90;;;1.60;;
13967;SDS011;39536;52.198;9.920;2023-09-19T00:39:04;2.37;;;2.07;;
13967;SDS011;39536;52.198;9.920;2023-09-19T00:41:31;6.27;;;1.90;;
13967;SDS011;39536;52.198;9.920;2023-09-19T00:44:00;2.60;;;2.40;;
13967;SDS011;39536;52.198;9.920;2023-09-19T00:46:29;4.27;;;2.17;;
13967;SDS011;39536;52.198;9.920;2023-09-19T00:48:57;3.17;;;2.03;;
13967;SDS011;39536;52.198;9.920;2023-09-19T00:51:24;2.87;;;2.50;;
13967;SDS011;39536;52.198;9.920;2023-09-19T00:53:54;2.40;;;2.30;;
13967;SDS011;39536;52.198;9.920;2023-09-19T00:56:21;3.20;;;2.90;;
13967;SDS011;39536;52.198;9.920;2023-09-19T00:58:48;2.43;;;2.23;;
13967;SDS011;39536;52.198;9.920;2023-09-19T01:01:15;5.47;;;2.60;;
13967;SDS011;39536;52.198;9.920;2023-09-19T01:03:42;3.47;;;3.00;;
13967;SDS011;39536;52.198;9.920;2023-09-19T01:06:10;3.03;;;2.23;;
13967;SDS011;39536;52.198;9.920;2023-09-19T01:08:37;3.20;;;2.90;;
13967;SDS011;39536;52.198;9.920;2023-09-19T01:11:09;5.10;;;3.10;;
13967;SDS011;39536;52.198;9.920;2023-09-19T01:13:46;3.87;;;3.43;;
13967;SDS011;39536;52.198;9.920;2023-09-19T01:16:19;3.50;;;3.20;;
13967;SDS011;39536;52.198;9.920;2023-09-19T01:19:02;4.17;;;3.40;;
13967;SDS011;39536;52.198;9.920;2023-09-19T01:21:48;5.23;;;3.40;;
13967;SDS011;39536;52.198;9.920;2023-09-19T01:24:32;3.83;;;3.30;;
13967;SDS011;39536;52.198;9.920;2023-09-19T01:27:25;4.00;;;3.00;;
13967;SDS011;39536;52.198;9.920;2023-09-19T01:30:10;5.73;;;3.00;;
13967;SDS011;39536;52.198;9.920;2023-09-19T01:32:40;2.87;;;2.63;;
13967;SDS011;39536;52.198;9.920;2023-09-19T01:35:09;3.33;;;3.13;;
13967;SDS011;39536;52.198;9.920;2023-09-19T01:37:38;3.60;;;3.30;;
13967;SDS011;39536;52.198;9.920;2023-09-19T01:40:09;3.87;;;3.63;;
13967;SDS011;39536;52.198;9.920;2023-09-19T01:42:43;3.67;;;3.37;;
13967;SDS011;39536;52.198;9.920;2023-09-19T01:45:19;3.90;;;3.60;;
13967;SDS011;39536;52.198;9.920;2023-09-19T01:47:54;5.00;;;3.70;;
13967;SDS011;39536;52.198;9.920;2023-09-19T01:50:25;3.53;;;3.20;;
13967;SDS011;39536;52.198;9.920;2023-09-19T01:52:57;3.97;;;3.50;;
13967;SDS011;39536;52.198;9.920;2023-09-19T01:55:30;6.63;;;3.97;;
13967;SDS011;39536;52.198;9.920;2023-09-19T01:58:06;3.43;;;3.20;;
13967;SDS011;39536;52.198;9.920;2023-09-19T02:00:41;4.13;;;3.23;;
13967;SDS011;39536;52.198;9.920;2023-09-19T02:03:10;7.13;;;3.70;;
13967;SDS011;39536;52.198;9.920;2023-09-19T02:05:39;3.50;;;3.10;;
13967;SDS011;39536;52.198;9.920;2023-09-19T02:08:05;4.20;;;3.03;;
13967;SDS011;39536;52.198;9.920;2023-09-19T02:10:32;3.63;;;3.33;;
13967;SDS011;39536;52.198;9.920;2023-09-19T02:12:59;4.67;;;3.10;;
13967;SDS011;39536;52.198;9.920;2023-09-19T02:15:26;6.97;;;3.87;;
13967;SDS011;39536;52.198;9.920;2023-09-19T02:17:53;4.20;;;3.23;;
13967;SDS011;39536;52.198;9.920;2023-09-19T02:20:21;3.57;;;3.27;;
13967;SDS011;39536;52.198;9.920;2023-09-19T02:22:48;3.20;;;2.90;;
13967;SDS011;39536;52.198;9.920;2023-09-19T02:25:15;4.27;;;3.87;;
13967;SDS011;39536;52.198;9.920;2023-09-19T02:27:43;4.47;;;3.87;;
13967;SDS011;39536;52.198;9.920;2023-09-19T02:30:10;4.30;;;3.60;;
13967;SDS011;39536;52.198;9.920;2023-09-19T02:32:40;6.10;;;3.77;;
13967;SDS011;39536;52.198;9.920;2023-09-19T02:35:09;4.13;;;3.73;;
13967;SDS011;39536;52.198;9.920;2023-09-19T02:37:36;8.27;;;4.07;;
13967;SDS011;39536;52.198;9.920;2023-09-19T02:40:03;5.43;;;4.43;;
13967;SDS011;39536;52.198;9.920;2023-09-19T02:42:43;5.93;;;4.03;;
13967;SDS011;39536;52.198;9.920;2023-09-19T02:45:13;6.07;;;4.03;;
13967;SDS011;39536;52.198;9.920;2023-09-19T02:47:40;5.00;;;4.37;;
13967;SDS011;39536;52.198;9.920;2023-09-19T02:50:09;4.47;;;4.03;;
13967;SDS011;39536;52.198;9.920;2023-09-19T02:52:36;4.57;;;4.17;;
13967;SDS011;39536;52.198;9.920;2023-09-19T02:55:03;5.50;;;4.00;;
13967;SDS011;39536;52.198;9.920;2023-09-19T02:57:31;4.80;;;3.87;;
13967;SDS011;39536;52.198;9.920;2023-09-19T02:59:59;4.57;;;4.07;;
13967;SDS011;39536;52.198;9.920;2023-09-19T03:02:26;4.83;;;4.30;;
13967;SDS011;39536;52.198;9.920;2023-09-19T03:04:53;4.80;;;3.47;;
13967;SDS011;39536;52.198;9.920;2023-09-19T03:07:23;4.30;;;3.67;;
13967;SDS011;39536;52.198;9.920;2023-09-19T03:09:50;5.40;;;3.53;;
13967;SDS011;39536;52.198;9.920;2023-09-19T03:12:17;4.73;;;3.60;;
13967;SDS011;39536;52.198;9.920;2023-09-19T03:14:44;3.80;;;3.50;;
13967;SDS011;39536;52.198;9.920;2023-09-19T03:17:11;4.63;;;3.50;;
13967;SDS011;39536;52.198;9.920;2023-09-19T03:19:39;9.17;;;3.63;;
13967;SDS011;39536;52.198;9.920;2023-09-19T03:22:06;6.17;;;3.83;;
13967;SDS011;39536;52.198;9.920;2023-09-19T03:24:35;3.90;;;3.50;;
13967;SDS011;39536;52.198;9.920;2023-09-19T03:27:02;3.60;;;3.30;;
13967;SDS011;39536;52.198;9.920;2023-09-19T03:29:29;4.17;;;3.77;;
13967;SDS011;39536;52.198;9.920;2023-09-19T03:31:56;5.10;;;4.67;;
13967;SDS011;39536;52.198;9.920;2023-09-19T03:34:23;5.27;;;4.77;;
13967;SDS011;39536;52.198;9.920;2023-09-19T03:36:50;5.67;;;5.07;;
13967;SDS011;39536;52.198;9.920;2023-09-19T03:39:16;5.70;;;5.20;;
13967;SDS011;39536;52.198;9.920;2023-09-19T03:41:44;7.00;;;6.00;;
13967;SDS011;39536;52.198;9.920;2023-09-19T03:44:11;7.10;;;5.83;;
13967;SDS011;39536;52.198;9.920;2023-09-19T03:46:38;6.57;;;4.70;;
13967;SDS011;39536;52.198;9.920;2023-09-19T03:49:04;6.83;;;5.13;;
13967;SDS011;39536;52.198;9.920;2023-09-19T03:51:31;9.13;;;6.97;;
13967;SDS011;39536;52.198;9.920;2023-09-19T03:53:59;5.83;;;5.37;;
13967;SDS011;39536;52.198;9.920;2023-09-19T03:56:26;5.97;;;5.37;;
13967;SDS011;39536;52.198;9.920;2023-09-19T03:58:55;6.10;;;5.60;;
13967;SDS011;39536;52.198;9.920;2023-09-19T04:01:21;6.63;;;6.00;;
13967;SDS011;39536;52.198;9.920;2023-09-19T04:03:48;7.40;;;6.23;;
13967;SDS011;39536;52.198;9.920;2023-09-19T04:06:16;6.10;;;5.50;;
13967;SDS011;39536;52.198;9.920;2023-09-19T04:08:43;6.40;;;5.70;;
13967;SDS011;39536;52.198;9.920;2023-09-19T04:11:11;6.80;;;6.10;;
13967;SDS011;39536;52.198;9.920;2023-09-19T04:13:38;7.03;;;6.27;;
13967;SDS011;39536;52.198;9.920;2023-09-19T04:16:06;6.37;;;5.80;;
13967;SDS011;39536;52.198;9.920;2023-09-19T04:18:33;9.27;;;6.73;;
13967;SDS011;39536;52.198;9.920;2023-09-19T04:21:03;8.00;;;6.50;;
13967;SDS011;39536;52.198;9.920;2023-09-19T04:23:30;7.27;;;6.50;;
13967;SDS011;39536;52.198;9.920;2023-09-19T04:25:57;7.47;;;5.57;;
13967;SDS011;39536;52.198;9.920;2023-09-19T04:28:24;6.50;;;5.93;;
13967;SDS011;39536;52.198;9.920;2023-09-19T04:30:52;9.47;;;6.17;;
13967;SDS011;39536;52.198;9.920;2023-09-19T04:33:21;7.97;;;6.83;;
13967;SDS011;39536;52.198;9.920;2023-09-19T04:35:49;7.97;;;6.70;;
13967;SDS011;39536;52.198;9.920;2023-09-19T04:38:15;7.13;;;5.70;;
13967;SDS011;39536;52.198;9.920;2023-09-19T04:40:43;6.53;;;5.90;;
13967;SDS011;39536;52.198;9.920;2023-09-19T04:43:09;8.33;;;6.17;;
13967;SDS011;39536;52.198;9.920;2023-09-19T04:45:36;6.83;;;5.67;;
13967;SDS011;39536;52.198;9.920;2023-09-19T04:48:05;8.73;;;5.77;;
13967;SDS011;39536;52.198;9.920;2023-09-19T04:50:35;8.07;;;5.97;;
13967;SDS011;39536;52.198;9.920;2023-09-19T04:53:02;8.13;;;5.23;;
13967;SDS011;39536;52.198;9.920;2023-09-19T04:55:29;6.47;;;5.03;;
13967;SDS011;39536;52.198;9.920;2023-09-19T04:57:58;5.90;;;5.13;;
13967;SDS011;39536;52.198;9.920;2023-09-19T05:00:24;7.30;;;5.33;;
13967;SDS011;39536;52.198;9.920;2023-09-19T05:02:55;6.63;;;5.13;;
13967;SDS011;39536;52.198;9.920;2023-09-19T05:05:22;5.97;;;4.93;;
13967;SDS011;39536;52.198;9.920;2023-09-19T05:07:52;6.53;;;5.00;;
13967;SDS011;39536;52.198;9.920;2023-09-19T05:10:19;6.87;;;5.37;;
13967;SDS011;39536;52.198;9.920;2023-09-19T05:12:46;5.70;;;4.30;;
13967;SDS011;39536;52.198;9.920;2023-09-19T05:15:16;5.53;;;4.63;;
13967;SDS011;39536;52.198;9.920;2023-09-19T05:17:47;8.43;;;5.33;;
13967;SDS011;39536;52.198;9.920;2023-09-19T05:20:14;6.33;;;4.80;;
13967;SDS011;39536;52.198;9.920;2023-09-19T05:22:49;5.87;;;4.73;;
13967;SDS011;39536;52.198;9.920;2023-09-19T05:25:23;7.17;;;5.60;;
13967;SDS011;39536;52.198;9.920;2023-09-19T05:27:51;5.43;;;5.00;;
13967;SDS011;39536;52.198;9.920;2023-09-19T05:30:19;5.53;;;4.90;;
13967;SDS011;39536;52.198;9.920;2023-09-19T05:32:47;6.83;;;4.33;;
13967;SDS011;39536;52.198;9.920;2023-09-19T05:35:13;6.33;;;4.93;;
13967;SDS011;39536;52.198;9.920;2023-09-19T05:37:41;6.90;;;5.73;;
13967;SDS011;39536;52.198;9.920;2023-09-19T05:40:09;7.73;;;5.97;;
13967;SDS011;39536;52.198;9.920;2023-09-19T05:42:37;6.20;;;5.53;;
13967;SDS011;39536;52.198;9.920;2023-09-19T05:45:04;9.17;;;5.60;;
13967;SDS011;39536;52.198;9.920;2023-09-19T05:47:32;7.20;;;4.43;;
13967;SDS011;39536;52.198;9.920;2023-09-19T05:49:59;6.87;;;4.93;;
13967;SDS011;39536;52.198;9.920;2023-09-19T05:52:26;7.23;;;5.87;;
13967;SDS011;39536;52.198;9.920;2023-09-19T05:54:52;6.57;;;5.47;;
13967;SDS011;39536;52.198;9.920;2023-09-19T05:57:20;7.03;;;5.07;;
13967;SDS011;39536;52.198;9.920;2023-09-19T05:59:47;7.30;;;4.97;;
13967;SDS011;39536;52.198;9.920;2023-09-19T06:02:15;7.77;;;4.97;;
13967;SDS011;39536;52.198;9.920;2023-09-19T06:04:44;12.03;;;5.10;;
13967;SDS011;39536;52.198;9.920;2023-09-19T06:07:10;8.73;;;4.97;;
13967;SDS011;39536;52.198;9.920;2023-09-19T06:09:37;7.77;;;3.80;;
13967;SDS011;39536;52.198;9.920;2023-09-19T06:12:04;6.30;;;4.50;;
13967;SDS011;39536;52.198;9.920;2023-09-19T06:14:32;5.40;;;4.63;;
13967;SDS011;39536;52.198;9.920;2023-09-19T06:16:59;7.07;;;4.70;;
13967;SDS011;39536;52.198;9.920;2023-09-19T06:19:26;6.30;;;4.20;;
13967;SDS011;39536;52.198;9.920;2023-09-19T06:21:53;5.97;;;4.23;;
13967;SDS011;39536;52.198;9.920;2023-09-19T06:24:20;4.00;;;3.60;;
13967;SDS011;39536;52.198;9.920;2023-09-19T06:26:46;7.60;;;4.90;;
13967;SDS011;39536;52.198;9.920;2023-09-19T06:29:14;7.67;;;4.30;;
13967;SDS011;39536;52.198;9.920;2023-09-19T06:31:42;5.07;;;4.10;;
13967;SDS011;39536;52.198;9.920;2023-09-19T06:34:09;12.00;;;4.83;;
13967;SDS011;39536;52.198;9.920;2023-09-19T06:36:36;7.03;;;4.53;;
13967;SDS011;39536;52.198;9.920;2023-09-19T06:39:03;5.00;;;3.67;;
13967;SDS011;39536;52.198;9.920;2023-09-19T06:41:31;6.97;;;4.73;;
13967;SDS011;39536;52.198;9.920;2023-09-19T06:43:58;9.30;;;4.90;;
13967;SDS011;39536;52.198;9.920;2023-09-19T06:46:25;4.70;;;4.07;;
13967;SDS011;39536;52.198;9.920;2023-09-19T06:48:59;5.37;;;3.70;;
13967;SDS011;39536;52.198;9.920;2023-09-19T06:51:25;6.23;;;4.07;;
13967;SDS011;39536;52.198;9.920;2023-09-19T06:53:52;11.73;;;4.10;;
13967;SDS011;39536;52.198;9.920;2023-09-19T06:56:19;6.27;;;3.70;;
13967;SDS011;39536;52.198;9.920;2023-09-19T06:58:49;9.73;;;4.17;;
13967;SDS011;39536;52.198;9.920;2023-09-19T07:01:16;5.33;;;3.73;;
13967;SDS011;39536;52.198;9.920;2023-09-19T07:03:43;7.47;;;3.67;;
13967;SDS011;39536;52.198;9.920;2023-09-19T07:06:12;8.10;;;3.63;;
13967;SDS011;39536;52.198;9.920;2023-09-19T07:08:39;5.17;;;3.23;;
13967;SDS011;39536;52.198;9.920;2023-09-19T07:11:06;9.00;;;2.77;;
13967;SDS011;39536;52.198;9.920;2023-09-19T07:13:32;6.50;;;3.33;;
13967;SDS011;39536;52.198;9.920;2023-09-19T07:15:59;11.27;;;3.93;;
13967;SDS011;39536;52.198;9.920;2023-09-19T07:18:26;11.33;;;3.03;;
13967;SDS011;39536;52.198;9.920;2023-09-19T07:20:56;6.10;;;2.70;;
13967;SDS011;39536;52.198;9.920;2023-09-19T07:23:27;4.33;;;2.00;;
13967;SDS011;39536;52.198;9.920;2023-09-19T07:25:56;6.50;;;2.50;;
13967;SDS011;39536;52.198;9.920;2023-09-19T07:28:23;9.70;;;2.60;;
13967;SDS011;39536;52.198;9.920;2023-09-19T07:30:50;6.47;;;2.23;;
13967;SDS011;39536;52.198;9.920;2023-09-19T07:33:17;6.37;;;2.40;;
13967;SDS011;39536;52.198;9.920;2023-09-19T07:35:47;7.37;;;2.63;;
13967;SDS011;39536;52.198;9.920;2023-09-19T07:38:14;7.73;;;2.57;;
13967;SDS011;39536;52.198;9.920;2023-09-19T07:40:43;5.13;;;2.37;;
13967;SDS011;39536;52.198;9.920;2023-09-19T07:43:09;7.00;;;2.33;;
13967;SDS011;39536;52.198;9.920;2023-09-19T07:45:36;11.63;;;2.63;;
13967;SDS011;39536;52.198;9.920;2023-09-19T07:48:03;5.23;;;2.27;;
13967;SDS011;39536;52.198;9.920;2023-09-19T07:50:33;7.10;;;2.20;;
13967;SDS011;39536;52.198;9.920;2023-09-19T07:53:01;5.57;;;2.30;;
13967;SDS011;39536;52.198;9.920;2023-09-19T07:55:30;5.67;;;2.30;;
13967;SDS011;39536;52.198;9.920;2023-09-19T07:58:00;7.67;;;2.50;;
13967;SDS011;39536;52.198;9.920;2023-09-19T08:00:28;10.90;;;2.63;;
13967;SDS011;39536;52.198;9.920;2023-09-19T08:02:57;6.00;;;2.03;;
13967;SDS011;39536;52.198;9.920;2023-09-19T08:05:24;4.83;;;1.93;;
13967;SDS011;39536;52.198;9.920;2023-09-19T08:07:51;5.23;;;2.10;;
13967;SDS011;39536;52.198;9.920;2023-09-19T08:10:19;5.50;;;2.37;;
13967;SDS011;39536;52.198;9.920;2023-09-19T08:12:46;6.20;;;2.67;;
13967;SDS011;39536;52.198;9.920;2023-09-19T08:15:16;4.20;;;2.23;;
13967;SDS011;39536;52.198;9.920;2023-09-19T08:17:44;6.00;;;2.30;;
13967;SDS011;39536;52.198;9.920;2023-09-19T08:20:12;11.07;;;2.30;;
13967;SDS011;39536;52.198;9.920;2023-09-19T08:22:42;4.00;;;1.60;;
13967;SDS011;39536;52.198;9.920;2023-09-19T08:25:11;6.53;;;2.20;;
13967;SDS011;39536;52.198;9.920;2023-09-19T08:27:38;6.77;;;2.90;;
13967;SDS011;39536;52.198;9.920;2023-09-19T08:30:05;3.80;;;1.70;;
13967;SDS011;39536;52.198;9.920;2023-09-19T08:32:34;7.23;;;2.77;;
13967;SDS011;39536;52.198;9.920;2023-09-19T08:35:01;7.03;;;2.27;;
13967;SDS011;39536;52.198;9.920;2023-09-19T08:37:29;7.37;;;2.47;;
13967;SDS011;39536;52.198;9.920;2023-09-19T08:39:56;6.63;;;2.47;;
13967;SDS011;39536;52.198;9.920;2023-09-19T08:42:22;5.50;;;2.10;;
13967;SDS011;39536;52.198;9.920;2023-09-19T08:44:50;6.20;;;1.93;;
13967;SDS011;39536;52.198;9.920;2023-09-19T08:47:17;8.20;;;2.80;;
13967;SDS011;39536;52.198;9.920;2023-09-19T08:49:58;6.97;;;2.10;;
13967;SDS011;39536;52.198;9.920;2023-09-19T08:52:41;4.77;;;2.00;;
13967;SDS011;39536;52.198;9.920;2023-09-19T08:55:11;8.27;;;2.57;;
13967;SDS011;39536;52.198;9.920;2023-09-19T08:57:45;10.97;;;2.40;;
13967;SDS011;39536;52.198;9.920;2023-09-19T09:00:14;5.53;;;1.83;;
13967;SDS011;39536;52.198;9.920;2023-09-19T09:02:43;6.07;;;2.00;;
13967;SDS011;39536;52.198;9.920;2023-09-19T09:05:11;2.53;;;1.80;;
13967;SDS011;39536;52.198;9.920;2023-09-19T09:07:39;5.07;;;2.07;;
13967;SDS011;39536;52.198;9.920;2023-09-19T09:10:07;5.73;;;2.00;;
13967;SDS011;39536;52.198;9.920;2023-09-19T09:12:34;4.00;;;1.93;;
13967;SDS011;39536;52.198;9.920;2023-09-19T09:15:05;6.43;;;2.13;;
13967;SDS011;39536;52.198;9.920;2023-09-19T09:17:34;5.97;;;2.00;;
13967;SDS011;39536;52.198;9.920;2023-09-19T09:20:00;6.83;;;2.30;;
13967;SDS011;39536;52.198;9.920;2023-09-19T09:22:30;4.43;;;2.07;;
13967;SDS011;39536;52.198;9.920;2023-09-19T09:24:57;4.87;;;1.63;;
13967;SDS011;39536;52.198;9.920;2023-09-19T09:27:26;4.67;;;2.30;;
13967;SDS011;39536;52.198;9.920;2023-09-19T09:29:54;4.03;;;2.07;;
13967;SDS011;39536;52.198;9.920;2023-09-19T09:32:22;4.33;;;2.00;;
13967;SDS011;39536;52.198;9.920;2023-09-19T09:34:50;5.10;;;2.03;;
13967;SDS011;39536;52.198;9.920;2023-09-19T09:37:19;4.60;;;2.00;;
13967;SDS011;39536;52.198;9.920;2023-09-19T09:39:51;3.43;;;1.60;;
13967;SDS011;39536;52.198;9.920;2023-09-19T09:42:31;6.83;;;2.17;;
13967;SDS011;39536;52.198;9.920;2023-09-19T09:45:12;3.90;;;1.70;;
13967;SDS011;39536;52.198;9.920;2023-09-19T09:47:44;5.27;;;2.00;;
13967;SDS011;39536;52.198;9.920;2023-09-19T09:50:25;4.47;;;2.30;;
13967;SDS011;39536;52.198;9.920;2023-09-19T09:53:03;4.37;;;1.93;;
13967;SDS011;39536;52.198;9.920;2023-09-19T09:58:25;3.00;;;1.80;;
13967;SDS011;39536;52.198;9.920;2023-09-19T10:00:54;4.57;;;2.27;;
13967;SDS011;39536;52.198;9.920;2023-09-19T10:03:31;6.10;;;2.33;;
13967;SDS011;39536;52.198;9.920;2023-09-19T10:05:59;7.20;;;2.33;;
13967;SDS011;39536;52.198;9.920;2023-09-19T10:08:58;6.47;;;2.47;;
13967;SDS011;39536;52.198;9.920;2023-09-19T10:11:40;4.03;;;2.50;;
13967;SDS011;39536;52.198;9.920;2023-09-19T10:14:09;4.37;;;1.73;;
13967;SDS011;39536;52.198;9.920;2023-09-19T10:16:40;3.87;;;2.03;;
13967;SDS011;39536;52.198;9.920;2023-09-19T10:19:15;2.47;;;1.70;;
13967;SDS011;39536;52.198;9.920;2023-09-19T10:21:49;5.60;;;2.37;;
13967;SDS011;39536;52.198;9.920;2023-09-19T10:24:17;4.77;;;2.30;;
13967;SDS011;39536;52.198;9.920;2023-09-19T10:26:48;5.07;;;2.27;;
13967;SDS011;39536;52.198;9.920;2023-09-19T10:29:16;3.33;;;1.80;;
13967;SDS011;39536;52.198;9.920;2023-09-19T10:31:45;4.77;;;2.93;;
13967;SDS011;39536;52.198;9.920;2023-09-19T10:34:15;3.80;;;1.80;;
13967;SDS011;39536;52.198;9.920;2023-09-19T10:36:44;9.80;;;2.60;;
13967;SDS011;39536;52.198;9.920;2023-09-19T10:39:13;11.07;;;3.53;;
13967;SDS011;39536;52.198;9.920;2023-09-19T10:41:44;3.50;;;1.87;;
13967;SDS011;39536;52.198;9.920;2023-09-19T10:44:20;9.07;;;2.73;;
13967;SDS011;39536;52.198;9.920;2023-09-19T10:46:50;5.13;;;2.47;;
13967;SDS011;39536;52.198;9.920;2023-09-19T10:49:21;5.90;;;2.23;;
13967;SDS011;39536;52.198;9.920;2023-09-19T10:51:50;5.97;;;2.70;;
13967;SDS011;39536;52.198;9.920;2023-09-19T10:54:21;6.43;;;2.50;;
13967;SDS011;39536;52.198;9.920;2023-09-19T10:56:53;4.60;;;1.90;;
13967;SDS011;39536;52.198;9.920;2023-09-19T10:59:24;5.10;;;1.90;;
13967;SDS011;39536;52.198;9.920;2023-09-19T11:02:00;3.90;;;1.97;;
13967;SDS011;39536;52.198;9.920;2023-09-19T11:04:42;5.53;;;2.27;;
13967;SDS011;39536;52.198;9.920;2023-09-19T11:07:13;8.27;;;3.00;;
13967;SDS011;39536;52.198;9.920;2023-09-19T11:09:44;5.60;;;2.77;;
13967;SDS011;39536;52.198;9.920;2023-09-19T11:24:31;5.43;;;2.47;;
13967;SDS011;39536;52.198;9.920;2023-09-19T11:29:55;4.33;;;2.47;;
13967;SDS011;39536;52.198;9.920;2023-09-19T11:36:04;3.23;;;2.40;;
13967;SDS011;39536;52.198;9.920;2023-09-19T11:41:46;9.83;;;2.90;;
13967;SDS011;39536;52.198;9.920;2023-09-19T11:44:34;5.87;;;2.87;;
13967;SDS011;39536;52.198;9.920;2023-09-19T11:47:10;4.70;;;2.70;;
13967;SDS011;39536;52.198;9.920;2023-09-19T11:49:46;3.53;;;2.30;;
13967;SDS011;39536;52.198;9.920;2023-09-19T11:52:21;3.37;;;2.20;;
13967;SDS011;39536;52.198;9.920;2023-09-19T11:54:55;5.63;;;2.57;;
13967;SDS011;39536;52.198;9.920;2023-09-19T11:57:23;3.97;;;2.57;;
13967;SDS011;39536;52.198;9.920;2023-09-19T11:59:50;4.50;;;2.77;;
13967;SDS011;39536;52.198;9.920;2023-09-19T12:02:27;6.00;;;2.60;;
13967;SDS011;39536;52.198;9.920;2023-09-19T12:05:06;3.37;;;2.50;;
13967;SDS011;39536;52.198;9.920;2023-09-19T12:07:44;7.73;;;2.57;;
13967;SDS011;39536;52.198;9.920;2023-09-19T12:10:18;5.03;;;3.07;;
13967;SDS011;39536;52.198;9.920;2023-09-19T12:12:50;7.27;;;2.90;;
13967;SDS011;39536;52.198;9.920;2023-09-19T12:15:24;7.30;;;2.50;;
13967;SDS011;39536;52.198;9.920;2023-09-19T12:17:55;7.17;;;4.00;;
13967;SDS011;39536;52.198;9.920;2023-09-19T12:20:25;2.93;;;2.17;;
13967;SDS011;39536;52.198;9.920;2023-09-19T12:23:12;5.57;;;2.60;;
13967;SDS011;39536;52.198;9.920;2023-09-19T12:25:41;5.33;;;2.70;;
13967;SDS011;39536;52.198;9.920;2023-09-19T12:28:12;3.00;;;2.20;;
13967;SDS011;39536;52.198;9.920;2023-09-19T12:30:48;7.10;;;2.70;;
13967;SDS011;39536;52.198;9.920;2023-09-19T12:33:20;5.37;;;2.97;;
13967;SDS011;39536;52.198;9.920;2023-09-19T12:35:54;4.77;;;3.10;;
13967;SDS011;39536;52.198;9.920;2023-09-19T12:38:26;4.70;;;2.43;;
13967;SDS011;39536;52.198;9.920;2023-09-19T12:41:03;7.60;;;3.00;;
13967;SDS011;39536;52.198;9.920;2023-09-19T12:43:32;4.87;;;2.63;;
13967;SDS011;39536;52.198;9.920;2023-09-19T12:46:01;3.53;;;1.97;;
13967;SDS011;39536;52.198;9.920;2023-09-19T12:48:34;3.40;;;2.40;;
13967;SDS011;39536;52.198;9.920;2023-09-19T12:51:06;13.43;;;8.90;;
13967;SDS011;39536;52.198;9.920;2023-09-19T12:53:38;4.03;;;2.50;;
13967;SDS011;39536;52.198;9.920;2023-09-19T12:56:07;5.60;;;3.07;;
13967;SDS011;39536;52.198;9.920;2023-09-19T12:58:47;5.28;;;3.28;;
13967;SDS011;39536;52.198;9.920;2023-09-19T13:01:19;6.30;;;3.13;;
13967;SDS011;39536;52.198;9.920;2023-09-19T13:06:44;4.47;;;1.93;;
13967;SDS011;39536;52.198;9.920;2023-09-19T13:09:14;4.70;;;3.17;;
13967;SDS011;39536;52.198;9.920;2023-09-19T13:11:41;4.63;;;2.77;;
13967;SDS011;39536;52.198;9.920;2023-09-19T13:14:16;4.33;;;3.60;;
13967;SDS011;39536;52.198;9.920;2023-09-19T13:16:54;6.60;;;2.67;;
13967;SDS011;39536;52.198;9.920;2023-09-19T13:19:36;4.13;;;2.47;;
13967;SDS011;39536;52.198;9.920;2023-09-19T13:22:04;5.27;;;2.90;;
13967;SDS011;39536;52.198;9.920;2023-09-19T13:24:33;6.83;;;3.40;;
13967;SDS011;39536;52.198;9.920;2023-09-19T13:27:05;4.70;;;2.30;;
13967;SDS011;39536;52.198;9.920;2023-09-19T13:29:37;3.57;;;2.40;;
13967;SDS011;39536;52.198;9.920;2023-09-19T13:32:07;6.23;;;2.23;;
13967;SDS011;39536;52.198;9.920;2023-09-19T13:34:43;2.53;;;2.10;;
13967;SDS011;39536;52.198;9.920;2023-09-19T13:37:10;3.33;;;2.80;;
13967;SDS011;39536;52.198;9.920;2023-09-19T13:39:38;5.10;;;2.50;;
13967;SDS011;39536;52.198;9.920;2023-09-19T13:42:13;2.87;;;2.50;;
13967;SDS011;39536;52.198;9.920;2023-09-19T13:44:41;5.97;;;3.43;;
13967;SDS011;39536;52.198;9.920;2023-09-19T13:47:11;3.77;;;2.93;;
13967;SDS011;39536;52.198;9.920;2023-09-19T13:49:55;3.80;;;2.60;;
13967;SDS011;39536;52.198;9.920;2023-09-19T13:52:24;3.97;;;2.23;;
13967;SDS011;39536;52.198;9.920;2023-09-19T13:55:00;3.83;;;2.80;;
13967;SDS011;39536;52.198;9.920;2023-09-19T13:57:28;5.87;;;2.37;;
13967;SDS011;39536;52.198;9.920;2023-09-19T13:59:55;10.40;;;2.70;;
13967;SDS011;39536;52.198;9.920;2023-09-19T14:02:34;3.13;;;2.73;;
13967;SDS011;39536;52.198;9.920;2023-09-19T14:05:14;3.37;;;2.00;;
13967;SDS011;39536;52.198;9.920;2023-09-19T14:07:41;4.33;;;2.67;;
13967;SDS011;39536;52.198;9.920;2023-09-19T14:10:09;6.57;;;3.13;;
13967;SDS011;39536;52.198;9.920;2023-09-19T14:12:36;3.20;;;2.43;;
13967;SDS011;39536;52.198;9.920;2023-09-19T14:15:09;5.17;;;2.73;;
13967;SDS011;39536;52.198;9.920;2023-09-19T14:17:39;4.87;;;2.43;;
13967;SDS011;39536;52.198;9.920;2023-09-19T14:20:07;3.17;;;2.47;;
13967;SDS011;39536;52.198;9.920;2023-09-19T14:22:36;3.00;;;2.13;;
13967;SDS011;39536;52.198;9.920;2023-09-19T14:25:04;2.13;;;1.93;;
13967;SDS011;39536;52.198;9.920;2023-09-19T14:27:31;6.10;;;2.73;;
13967;SDS011;39536;52.198;9.920;2023-09-19T14:29:58;3.50;;;2.30;;
13967;SDS011;39536;52.198;9.920;2023-09-19T14:32:24;3.43;;;2.30;;
13967;SDS011;39536;52.198;9.920;2023-09-19T14:34:51;9.57;;;2.80;;
13967;SDS011;39536;52.198;9.920;2023-09-19T14:37:18;2.60;;;1.93;;
13967;SDS011;39536;52.198;9.920;2023-09-19T14:39:47;2.87;;;2.03;;
13967;SDS011;39536;52.198;9.920;2023-09-19T14:42:14;3.53;;;1.97;;
13967;SDS011;39536;52.198;9.920;2023-09-19T14:44:42;5.23;;;2.30;;
13967;SDS011;39536;52.198;9.920;2023-09-19T14:47:09;3.00;;;1.90;;
13967;SDS011;39536;52.198;9.920;2023-09-19T14:49:38;3.53;;;2.07;;
13967;SDS011;39536;52.198;9.920;2023-09-19T14:52:06;3.23;;;2.33;;
13967;SDS011;39536;52.198;9.920;2023-09-19T14:54:34;6.13;;;2.30;;
13967;SDS011;39536;52.198;9.920;2023-09-19T14:57:04;6.87;;;2.50;;
13967;SDS011;39536;52.198;9.920;2023-09-19T14:59:30;2.03;;;1.87;;
13967;SDS011;39536;52.198;9.920;2023-09-19T15:01:57;5.50;;;2.13;;
13967;SDS011;39536;52.198;9.920;2023-09-19T15:04:24;2.83;;;2.53;;
13967;SDS011;39536;52.198;9.920;2023-09-19T15:06:51;2.33;;;1.83;;
13967;SDS011;39536;52.198;9.920;2023-09-19T15:09:20;3.03;;;1.93;;
13967;SDS011;39536;52.198;9.920;2023-09-19T15:11:47;2.63;;;1.77;;
13967;SDS011;39536;52.198;9.920;2023-09-19T15:14:15;2.77;;;1.77;;
13967;SDS011;39536;52.198;9.920;2023-09-19T15:16:42;3.60;;;1.93;;
13967;SDS011;39536;52.198;9.920;2023-09-19T15:19:09;3.03;;;1.97;;
13967;SDS011;39536;52.198;9.920;2023-09-19T15:21:36;5.60;;;2.67;;
13967;SDS011;39536;52.198;9.920;2023-09-19T15:24:03;3.67;;;1.83;;
13967;SDS011;39536;52.198;9.920;2023-09-19T15:26:30;4.07;;;1.87;;
13967;SDS011;39536;52.198;9.920;2023-09-19T15:28:57;3.97;;;1.93;;
13967;SDS011;39536;52.198;9.920;2023-09-19T15:31:26;1.97;;;1.77;;